Time;durP1;ratioP1;P1;durP2;ratioP2;P2;SDS_P1;SDS_P2;PMS_P1;PMS_P2;Temp;Humidity;BMP_temperature;BMP_pressure;BME280_temperature;BME280_humidity;BME280_pressure;Samples;Min_cycle;Max_cycle;Signal;HPM_P1;HPM_P2
2021/04/06 00:00:43;;;;;;;5.87;3.90;;;;;;;10.26;36.98;99560.11;1790349;80;21497;-80
2021/04/06 00:03:19;;;;;;;5.85;3.37;;;;;;;10.21;37.03;99555.77;1790411;80;21089;-82
2021/04/06 00:05:49;;;;;;;5.60;3.83;;;;;;;10.19;37.23;99560.98;1790326;80;21070;-80
2021/04/06 00:08:16;;;;;;;8.33;4.22;;;;;;;10.20;37.29;99557.30;1763988;80;21050;-83
2021/04/06 00:10:49;;;;;;;5.40;3.77;;;;;;;10.22;37.29;99552.58;1790371;80;21078;-83
2021/04/06 00:13:16;;;;;;;8.30;4.30;;;;;;;10.29;37.31;99552.24;1790400;80;21078;-80
2021/04/06 00:15:45;;;;;;;6.45;4.03;;;;;;;10.32;37.27;99549.22;1790772;80;21078;-79
2021/04/06 00:18:14;;;;;;;6.30;4.72;;;;;;;10.32;37.25;99545.20;1790639;80;21055;-82
2021/04/06 00:20:42;;;;;;;7.70;4.97;;;;;;;10.30;37.30;99540.01;1790905;80;21129;-80
2021/04/06 00:23:10;;;;;;;7.92;4.80;;;;;;;10.25;37.42;99541.05;1790657;80;21185;-80
2021/04/06 00:25:40;;;;;;;7.12;4.28;;;;;;;10.26;37.55;99541.88;1764342;80;21110;-81
2021/04/06 00:28:11;;;;;;;10.35;4.55;;;;;;;10.29;37.59;99545.05;1739408;80;21106;-80
2021/04/06 00:30:38;;;;;;;5.65;3.85;;;;;;;10.31;37.64;99543.52;1791084;80;21049;-80
2021/04/06 00:33:12;;;;;;;9.35;5.62;;;;;;;10.29;37.83;99540.20;1765007;80;21086;-80
2021/04/06 00:35:39;;;;;;;8.68;5.45;;;;;;;10.26;37.95;99538.70;1791319;80;21588;-80
2021/04/06 00:38:11;;;;;;;;;;;;;;;10.26;38.23;99542.71;1793575;80;21086;-81
2021/04/06 00:40:45;;;;;;;8.00;5.10;;;;;;;10.26;38.42;99538.70;1790707;80;20481;-81
2021/04/06 00:43:12;;;;;;;6.12;4.47;;;;;;;10.27;38.58;99536.88;1765126;80;21153;-80
2021/04/06 00:45:43;;;;;;;8.25;5.25;;;;;;;10.30;38.70;99543.20;1790789;80;21146;-78
2021/04/06 00:48:16;;;;;;;11.00;5.47;;;;;;;10.34;38.82;99536.47;1791123;80;21107;-82
2021/04/06 00:51:10;;;;;;;9.38;5.00;;;;;;;10.44;38.94;99531.70;1790649;80;21090;-82
2021/04/06 00:53:57;;;;;;;8.23;5.58;;;;;;;10.57;38.97;99538.63;1790760;80;21534;-80
2021/04/06 00:56:38;;;;;;;7.08;5.37;;;;;;;10.61;39.09;99532.41;1790719;80;21481;-82
2021/04/06 00:59:11;;;;;;;8.98;5.10;;;;;;;10.66;39.28;99533.52;1780164;80;21513;-81
2021/04/06 01:01:46;;;;;;;7.12;5.47;;;;;;;10.75;39.39;99533.45;1771458;81;21091;-81
2021/04/06 01:04:17;;;;;;;9.28;5.67;;;;;;;10.79;39.55;99530.73;1790513;79;21166;-79
2021/04/06 01:07:14;;;;;;;8.13;6.03;;;;;;;10.80;39.68;99527.86;1781324;80;21161;-78
2021/04/06 01:09:53;;;;;;;7.05;5.00;;;;;;;10.78;39.85;99521.05;1780767;80;21161;-81
2021/04/06 01:12:26;;;;;;;9.03;5.97;;;;;;;10.82;40.03;99526.36;1757062;80;21101;-80
2021/04/06 01:14:54;;;;;;;9.73;6.08;;;;;;;10.80;40.16;99523.84;1782160;80;21193;-81
2021/04/06 01:17:29;;;;;;;9.95;6.42;;;;;;;10.85;40.27;99525.98;1782925;80;21165;-80
2021/04/06 01:20:07;;;;;;;9.15;6.50;;;;;;;10.88;40.27;99526.96;1782758;80;21063;-82
2021/04/06 01:22:36;;;;;;;10.63;6.35;;;;;;;10.87;40.38;99520.77;1782745;80;21054;-80
2021/04/06 01:25:06;;;;;;;8.15;6.25;;;;;;;10.90;40.49;99523.58;1782940;80;21094;-79
2021/04/06 01:27:33;;;;;;;8.35;5.95;;;;;;;10.91;40.60;99517.23;1783111;80;21122;-80
2021/04/06 01:30:00;;;;;;;9.63;6.37;;;;;;;10.93;40.69;99522.70;1783150;80;21548;-79
2021/04/06 01:32:27;;;;;;;8.63;6.53;;;;;;;10.92;40.77;99517.55;1757359;80;21058;-80
2021/04/06 01:34:56;;;;;;;9.50;6.53;;;;;;;10.91;40.87;99523.92;1782656;80;21054;-81
2021/04/06 01:37:25;;;;;;;8.18;6.05;;;;;;;10.90;40.95;99516.88;1782623;80;21141;-81
2021/04/06 01:39:55;;;;;;;8.70;6.67;;;;;;;10.94;40.97;99527.56;1782613;80;21115;-79
2021/04/06 01:42:26;;;;;;;9.48;6.75;;;;;;;10.98;40.98;99526.18;1782208;80;21577;-79
2021/04/06 01:44:56;;;;;;;10.45;6.80;;;;;;;10.96;41.00;99521.52;1782431;80;21034;-81
2021/04/06 01:47:25;;;;;;;11.83;7.05;;;;;;;10.98;40.98;99529.37;1782368;80;21489;-80
2021/04/06 01:49:53;;;;;;;11.68;7.28;;;;;;;11.01;41.04;99536.54;1782316;80;21125;-81
2021/04/06 01:52:23;;;;;;;13.25;8.00;;;;;;;10.98;41.06;99530.20;1782459;80;21608;-81
2021/04/06 01:54:56;;;;;;;18.02;8.25;;;;;;;10.93;41.22;99531.26;1782317;80;21129;-81
2021/04/06 01:57:28;;;;;;;20.92;8.93;;;;;;;10.91;41.33;99534.13;1782324;80;21160;-82
2021/04/06 01:59:57;;;;;;;15.80;8.60;;;;;;;10.94;41.39;99536.94;1781917;80;21542;-83
2021/04/06 02:02:30;;;;;;;17.10;9.08;;;;;;;11.01;41.41;99530.35;1782502;80;21559;-81
2021/04/06 02:04:59;;;;;;;13.93;8.00;;;;;;;11.07;41.42;99532.28;1782331;80;21066;-82
2021/04/06 02:07:30;;;;;;;19.48;9.00;;;;;;;11.12;41.45;99529.88;1782277;80;21490;-81
2021/04/06 02:09:58;;;;;;;15.98;8.90;;;;;;;11.16;41.44;99529.33;1782099;80;21078;-79
2021/04/06 02:12:26;;;;;;;12.65;8.05;;;;;;;11.12;41.54;99524.52;1782069;80;21099;-79
2021/04/06 02:14:58;;;;;;;14.30;8.83;;;;;;;11.06;41.72;99523.42;1782367;80;21624;-81
2021/04/06 02:17:27;;;;;;;15.95;9.48;;;;;;;11.04;41.85;99523.30;1782058;80;21070;-80
2021/04/06 02:19:54;;;;;;;12.63;8.88;;;;;;;11.03;41.90;99522.44;1756140;80;21506;-79
2021/04/06 02:22:21;;;;;;;;;;;;;;;11.01;42.02;99524.99;1786290;80;21111;-79
2021/04/06 02:24:50;;;;;;;12.63;8.78;;;;;;;10.95;42.09;99523.06;1784746;80;20230;-80
2021/04/06 02:27:21;;;;;;;13.80;8.45;;;;;;;10.90;42.27;99512.86;1782361;80;21071;-80
2021/04/06 02:29:55;;;;;;;11.85;8.53;;;;;;;10.91;42.34;99511.36;1782247;80;21177;-81
2021/04/06 02:32:29;;;;;;;11.28;8.20;;;;;;;10.92;42.39;99513.02;1781744;80;21149;-79
2021/04/06 02:34:59;;;;;;;10.65;7.75;;;;;;;10.91;42.43;99510.53;1781760;80;21090;-79
2021/04/06 02:37:29;;;;;;;11.00;8.00;;;;;;;10.84;42.50;99509.58;1782022;80;21078;-82
2021/04/06 02:39:59;;;;;;;13.65;8.55;;;;;;;10.81;42.65;99509.94;1782013;80;21069;-81
2021/04/06 02:42:42;;;;;;;11.30;8.20;;;;;;;10.77;42.75;99514.03;1782029;80;21083;-80
2021/04/06 02:45:15;;;;;;;12.85;8.03;;;;;;;10.72;42.90;99511.03;1782390;80;21165;-80
2021/04/06 02:47:54;;;;;;;16.55;8.48;;;;;;;10.71;42.99;99510.72;1782301;80;21149;-79
2021/04/06 02:50:26;;;;;;;9.90;7.33;;;;;;;10.70;43.10;99515.76;1783510;80;21107;-80
2021/04/06 02:52:53;;;;;;;9.45;7.42;;;;;;;10.61;43.32;99513.66;1783217;80;21141;-81
2021/04/06 02:55:22;;;;;;;10.20;8.20;;;;;;;10.54;43.44;99512.23;1782260;80;21137;-80
2021/04/06 02:57:52;;;;;;;13.20;8.50;;;;;;;10.44;43.61;99506.27;1782146;80;21193;-82
2021/04/06 03:00:30;;;;;;;10.88;8.28;;;;;;;10.37;43.79;99506.17;1782419;80;21217;-80
2021/04/06 03:03:20;;;;;;;11.15;7.95;;;;;;;10.35;43.94;99501.48;1782401;80;21070;-80
2021/04/06 03:05:47;;;;;;;10.78;8.23;;;;;;;10.43;43.91;99505.13;1797147;79;21071;-80
2021/04/06 03:08:15;;;;;;;9.88;7.92;;;;;;;10.50;43.84;99504.23;1794154;79;21200;-80
2021/04/06 03:10:43;;;;;;;10.05;8.13;;;;;;;10.55;43.80;99507.70;1714910;80;21141;-79
2021/04/06 03:13:13;;;;;;;10.08;7.78;;;;;;;10.57;43.80;99502.98;1784862;77;21096;-79
2021/04/06 03:15:43;;;;;;;11.30;7.65;;;;;;;10.56;43.84;99504.00;1762603;81;21169;-79
2021/04/06 03:18:12;;;;;;;10.40;7.80;;;;;;;10.51;43.92;99511.23;1807359;79;21158;-81
2021/04/06 03:20:41;;;;;;;14.20;8.88;;;;;;;10.46;44.01;99513.63;1807341;79;21145;-79
2021/04/06 03:23:08;;;;;;;9.95;8.10;;;;;;;10.39;44.10;99509.48;1809466;79;21596;-78
2021/04/06 03:25:36;;;;;;;;;;;;;;;10.28;44.29;99512.61;1771299;80;21473;-78
2021/04/06 03:28:10;;;;;;;10.60;8.73;;;;;;;10.15;44.63;99508.32;1782091;79;20313;-81
2021/04/06 03:30:38;;;;;;;12.58;8.30;;;;;;;10.04;44.89;99505.56;1772881;80;21058;-79
2021/04/06 03:33:08;;;;;;;10.90;7.90;;;;;;;10.05;45.04;99508.56;1789554;77;21567;-80
2021/04/06 03:35:38;;;;;;;13.58;9.25;;;;;;;10.07;45.23;99505.70;1781064;79;21183;-80
2021/04/06 03:38:08;;;;;;;12.85;8.78;;;;;;;10.06;45.29;99506.20;1797152;77;21512;-79
2021/04/06 03:40:38;;;;;;;14.80;10.80;;;;;;;10.10;45.34;99514.20;1812861;79;21898;-78
2021/04/06 03:43:18;;;;;;;16.55;10.40;;;;;;;10.18;45.33;99513.33;1777145;80;21111;-80
2021/04/06 03:45:58;;;;;;;13.58;9.03;;;;;;;10.22;45.32;99509.28;1754917;80;21126;-77
2021/04/06 03:48:27;;;;;;;15.32;9.60;;;;;;;10.28;45.29;99522.48;1809672;77;21117;-78
2021/04/06 03:50:56;;;;;;;11.68;8.48;;;;;;;10.33;45.28;99534.81;1813107;79;21621;-78
2021/04/06 03:53:26;;;;;;;10.80;8.68;;;;;;;10.37;45.30;99532.11;1797475;79;21101;-80
2021/04/06 03:56:12;;;;;;;12.13;9.00;;;;;;;10.38;45.26;99530.58;1807370;79;21216;-77
2021/04/06 03:59:00;;;;;;;12.35;9.15;;;;;;;10.40;45.32;99536.61;1812506;79;21174;-77
2021/04/06 04:01:27;;;;;;;15.23;8.97;;;;;;;10.46;45.34;99540.41;1808537;79;21106;-79
2021/04/06 04:03:57;;;;;;;11.45;9.03;;;;;;;10.51;45.35;99539.35;1780973;80;21153;-80
2021/04/06 04:06:29;;;;;;;13.25;9.68;;;;;;;10.53;45.32;99535.14;1756477;79;21150;-81
2021/04/06 04:08:56;;;;;;;15.75;10.58;;;;;;;10.56;45.36;99534.28;1774657;79;21173;-78
2021/04/06 04:11:23;;;;;;;14.60;10.08;;;;;;;10.61;45.36;99535.91;1803676;79;21213;-80
2021/04/06 04:13:50;;;;;;;14.93;9.55;;;;;;;10.63;45.39;99537.92;1776498;80;21153;-81
2021/04/06 04:16:17;;;;;;;14.20;9.70;;;;;;;10.67;45.42;99530.33;1775097;80;21121;-80
2021/04/06 04:18:45;;;;;;;15.28;9.23;;;;;;;10.75;45.45;99537.47;1779655;79;21200;-78
2021/04/06 04:21:13;;;;;;;14.40;9.30;;;;;;;10.78;45.47;99537.94;1763068;80;21177;-80
2021/04/06 04:23:40;;;;;;;;;;;;;;;10.83;45.48;99532.87;1776755;80;21632;-79
2021/04/06 04:26:09;;;;;;;21.33;9.73;;;;;;;10.89;45.55;99536.66;1752597;79;20267;-80
2021/04/06 04:28:37;;;;;;;16.35;9.55;;;;;;;10.90;45.56;99531.61;1772454;80;21776;-79
2021/04/06 04:31:10;;;;;;;15.90;10.28;;;;;;;10.95;45.65;99531.09;1800544;77;21148;-82
2021/04/06 04:33:34;;;;;;;12.20;8.58;;;;;;;11.04;45.62;99538.86;1797675;79;21177;-78
2021/04/06 04:36:03;;;;;;;11.68;8.13;;;;;;;11.12;45.54;99536.07;1793943;77;21188;-77
2021/04/06 04:38:30;;;;;;;15.50;9.10;;;;;;;11.19;45.51;99528.14;1774277;79;21185;-79
2021/04/06 04:40:57;;;;;;;16.05;10.05;;;;;;;11.22;45.61;99526.92;1786524;79;21685;-80
2021/04/06 04:43:25;;;;;;;;;;;;;;;11.29;45.56;99541.27;1785973;79;21184;-80
2021/04/06 04:45:52;;;;;;;19.90;10.08;;;;;;;11.33;45.47;99534.52;1784306;79;20273;-80
2021/04/06 04:48:19;;;;;;;18.17;10.03;;;;;;;11.39;45.43;99533.25;1779120;80;21202;-77
2021/04/06 04:50:46;;;;;;;;;;;;;;;11.43;45.30;99539.08;1783600;79;21465;-79
2021/04/06 04:53:14;;;;;;;21.42;9.35;;;;;;;11.46;45.28;99539.23;1758904;80;20303;-80
2021/04/06 04:55:41;;;;;;;15.28;9.28;;;;;;;11.45;45.30;99542.42;1795585;79;21699;-78
2021/04/06 04:58:10;;;;;;;12.50;7.80;;;;;;;11.39;45.45;99537.27;1783843;79;21205;-78
2021/04/06 05:00:37;;;;;;;13.28;8.83;;;;;;;11.38;45.47;99531.59;1763973;79;21192;-78
2021/04/06 05:03:05;;;;;;;12.70;8.50;;;;;;;11.33;45.54;99525.12;1773132;78;21210;-78
2021/04/06 05:05:33;;;;;;;14.60;11.70;;;;;;;11.31;45.64;99531.17;1772822;79;21508;-77
2021/04/06 05:08:01;;;;;;;17.92;11.60;;;;;;;11.29;45.72;99527.86;1779695;79;21236;-79
2021/04/06 05:10:29;;;;;;;18.35;10.80;;;;;;;11.37;45.64;99525.91;1780152;79;21188;-78
2021/04/06 05:12:57;;;;;;;16.35;9.13;;;;;;;11.44;45.67;99521.97;1777596;78;21514;-77
2021/04/06 05:15:25;;;;;;;17.25;8.50;;;;;;;11.58;45.50;99532.35;1750443;78;21150;-77
2021/04/06 05:17:53;;;;;;;12.18;7.80;;;;;;;11.67;45.43;99529.40;1776785;78;21264;-81
2021/04/06 05:20:20;;;;;;;15.40;9.45;;;;;;;11.72;45.37;99524.81;1772512;79;21283;-78
2021/04/06 05:22:48;;;;;;;23.20;9.88;;;;;;;11.77;45.17;99518.37;1761496;79;21201;-78
2021/04/06 05:25:15;;;;;;;11.60;7.45;;;;;;;11.85;45.22;99516.09;1767426;79;21193;-77
2021/04/06 05:27:44;;;;;;;15.30;9.13;;;;;;;11.89;45.12;99524.09;1776607;79;21197;-78
2021/04/06 05:30:11;;;;;;;12.80;8.25;;;;;;;11.89;45.19;99516.86;1788222;77;21211;-77
2021/04/06 05:32:39;;;;;;;13.30;9.08;;;;;;;11.99;45.20;99509.88;1764019;79;21294;-78
2021/04/06 05:35:07;;;;;;;13.38;8.18;;;;;;;12.15;44.92;99510.95;1720342;79;21241;-76
2021/04/06 05:37:36;;;;;;;11.57;7.55;;;;;;;12.33;44.65;99508.33;1702138;82;21257;-78
2021/04/06 05:40:07;;;;;;;15.38;8.80;;;;;;;12.43;44.60;99500.25;1697407;82;21260;-79
2021/04/06 05:42:34;;;;;;;14.18;8.53;;;;;;;12.60;44.28;99514.77;1701881;83;21147;-77
2021/04/06 05:45:01;;;;;;;;;;;;;;;12.66;43.93;99498.69;1683845;82;21234;-77
2021/04/06 05:47:34;;;;;;;11.30;7.33;;;;;;;12.72;44.06;99501.61;1736913;81;20270;-80
2021/04/06 05:50:03;;;;;;;11.20;8.35;;;;;;;12.79;43.67;99510.56;1738675;81;21136;-77
2021/04/06 05:52:31;;;;;;;11.65;8.50;;;;;;;12.80;43.73;99491.55;1740352;81;21178;-78
2021/04/06 05:55:05;;;;;;;17.15;9.28;;;;;;;12.90;43.67;99500.63;1738460;81;21220;-80
2021/04/06 05:57:33;;;;;;;17.75;9.73;;;;;;;12.97;43.27;99494.77;1739134;80;21138;-77
2021/04/06 06:00:00;;;;;;;17.37;11.25;;;;;;;13.06;43.25;99502.16;1700854;82;21129;-79
2021/04/06 06:02:30;;;;;;;14.65;10.08;;;;;;;13.16;43.05;99489.19;1653814;84;21711;-77
2021/04/06 06:04:57;;;;;;;;;;;;;;;13.26;43.01;99501.78;1706605;83;21157;-77
2021/04/06 06:07:26;;;;;;;14.30;8.15;;;;;;;13.42;42.54;99503.33;1707254;82;20526;-77
2021/04/06 06:09:53;;;;;;;13.62;9.98;;;;;;;13.47;42.38;99500.03;1707602;82;21160;-79
2021/04/06 06:12:23;;;;;;;12.20;7.35;;;;;;;13.50;42.46;99509.89;1702230;83;21155;-81
2021/04/06 06:15:03;;;;;;;20.57;7.65;;;;;;;13.51;42.21;99520.13;1869627;75;22821;-78
2021/04/06 06:17:32;;;;;;;11.22;7.40;;;;;;;13.36;42.17;99510.34;1766848;78;21162;-81
2021/04/06 06:20:00;;;;;;;10.88;7.10;;;;;;;13.23;42.47;99506.23;1790789;78;21191;-77
2021/04/06 06:22:31;;;;;;;20.77;7.87;;;;;;;13.16;42.59;99518.77;1758987;80;21549;-79
2021/04/06 06:25:13;;;;;;;13.35;6.85;;;;;;;13.31;42.74;99514.66;1773430;78;21102;-77
2021/04/06 06:27:48;;;;;;;12.13;8.58;;;;;;;13.46;42.27;99523.42;1762723;78;21115;-79
2021/04/06 06:30:34;;;;;;;25.50;18.35;;;;;;;13.49;42.16;99521.69;1777789;79;21211;-78
2021/04/06 06:33:24;;;;;;;33.28;26.52;;;;;;;13.41;42.33;99509.22;1797277;78;21133;-81
2021/04/06 06:35:54;;;;;;;30.25;19.45;;;;;;;13.45;42.45;99521.77;1759934;79;22055;-78
2021/04/06 06:38:26;;;;;;;24.77;15.50;;;;;;;13.66;42.53;99517.59;1791818;78;21137;-78
2021/04/06 06:41:10;;;;;;;27.25;20.75;;;;;;;13.99;42.33;99511.52;1763993;80;21172;-79
2021/04/06 06:43:53;;;;;;;19.30;15.45;;;;;;;14.31;41.81;99519.86;1774320;79;21086;-77
2021/04/06 06:46:31;;;;;;;16.02;14.23;;;;;;;14.57;41.49;99521.75;1776515;78;21114;-81
2021/04/06 06:49:04;;;;;;;20.82;9.83;;;;;;;14.69;40.96;99507.98;1783639;78;21586;-78
2021/04/06 06:51:36;;;;;;;15.85;11.22;;;;;;;14.79;40.58;99504.86;1792434;78;21103;-78
2021/04/06 06:54:06;;;;;;;15.60;8.95;;;;;;;14.83;40.29;99529.02;1790025;78;21173;-77
2021/04/06 06:56:36;;;;;;;10.70;7.90;;;;;;;14.75;40.32;99513.87;1789805;78;21126;-80
2021/04/06 06:59:05;;;;;;;14.75;9.30;;;;;;;14.75;40.74;99516.56;1740474;78;21149;-78
2021/04/06 07:01:35;;;;;;;15.32;8.95;;;;;;;14.93;40.72;99519.45;1788898;78;21188;-78
2021/04/06 07:04:13;;;;;;;9.63;8.05;;;;;;;15.15;40.57;99521.92;1763750;80;21124;-78
2021/04/06 07:06:47;;;;;;;14.75;7.47;;;;;;;15.35;40.14;99518.66;1765065;80;21129;-77
2021/04/06 07:09:24;;;;;;;10.23;8.25;;;;;;;15.46;39.99;99530.66;1769411;78;21105;-78
2021/04/06 07:12:06;;;;;;;9.00;6.47;;;;;;;15.53;39.64;99527.40;1774936;79;21136;-77
2021/04/06 07:14:33;;;;;;;6.97;6.20;;;;;;;15.57;39.57;99531.34;1772067;79;21177;-79
2021/04/06 07:17:07;;;;;;;13.15;6.90;;;;;;;15.68;39.45;99529.89;1767747;79;21149;-78
2021/04/06 07:19:37;;;;;;;9.50;7.00;;;;;;;15.78;39.23;99529.43;1767956;79;21119;-77
2021/04/06 07:22:06;;;;;;;8.40;6.78;;;;;;;15.76;38.86;99535.05;1765195;80;21121;-77
2021/04/06 07:24:38;;;;;;;6.65;5.25;;;;;;;15.70;39.22;99531.84;1769754;79;21157;-76
2021/04/06 07:27:10;;;;;;;10.35;7.67;;;;;;;15.74;39.16;99542.52;1767633;79;21743;-78
2021/04/06 07:29:41;;;;;;;9.68;6.53;;;;;;;15.81;38.99;99539.28;1766715;79;21125;-80
2021/04/06 07:32:13;;;;;;;10.70;7.17;;;;;;;15.82;38.82;99548.21;1771367;79;21141;-78
2021/04/06 07:34:43;;;;;;;19.25;8.68;;;;;;;15.75;39.11;99526.63;1769454;79;21126;-76
2021/04/06 07:37:16;;;;;;;25.75;12.63;;;;;;;15.90;39.47;99529.07;1823226;77;21124;-77
2021/04/06 07:42:23;;;;;;;13.53;6.97;;;;;;;16.62;38.64;99533.18;1791474;78;23656;-77
2021/04/06 07:44:51;;;;;;;18.17;9.00;;;;;;;16.89;38.16;99536.49;1762691;79;21444;-78
2021/04/06 07:47:36;;;;;;;23.30;6.85;;;;;;;16.98;37.12;99536.52;1764212;79;21236;-80
2021/04/06 07:50:12;;;;;;;10.50;7.00;;;;;;;16.85;37.00;99537.16;1769693;79;21243;-80
2021/04/06 07:52:42;;;;;;;11.30;7.92;;;;;;;16.71;37.17;99545.88;1767856;79;21212;-78
2021/04/06 07:55:10;;;;;;;15.18;9.68;;;;;;;16.71;37.67;99530.50;1738664;79;21308;-77
2021/04/06 07:57:47;;;;;;;10.98;8.45;;;;;;;16.96;37.85;99535.09;1719737;79;21173;-80
2021/04/06 08:00:48;;;;;;;13.40;8.03;;;;;;;17.17;37.49;99529.28;1793289;79;21433;-79
2021/04/06 08:03:57;;;;;;;11.85;7.65;;;;;;;17.41;37.10;99522.14;1790010;78;21133;-78
2021/04/06 08:06:41;;;;;;;12.70;7.60;;;;;;;17.69;36.49;99536.49;1762103;80;20988;-78
2021/04/06 08:09:43;;;;;;;14.47;7.53;;;;;;;17.72;35.82;99527.92;1750968;79;21196;-77
2021/04/06 08:12:19;;;;;;;12.07;7.53;;;;;;;17.58;35.93;99529.14;1739552;81;21648;-77
2021/04/06 08:15:16;;;;;;;10.80;7.00;;;;;;;17.41;36.14;99538.38;1731149;82;21140;-77
2021/04/06 08:18:01;;;;;;;10.35;8.00;;;;;;;17.32;36.09;99533.50;1732061;82;21109;-82
2021/04/06 08:20:44;;;;;;;10.18;6.65;;;;;;;17.19;36.75;99531.22;1731263;80;21155;-79
2021/04/06 08:24:08;;;;;;;9.08;6.37;;;;;;;17.24;36.30;99533.25;1732804;80;21155;-78
2021/04/06 08:27:41;;;;;;;7.35;6.60;;;;;;;17.24;35.97;99526.48;1851152;74;22855;-77
2021/04/06 08:30:32;;;;;;;8.15;7.03;;;;;;;17.13;36.03;99532.12;1860029;75;21110;-77
2021/04/06 08:33:33;;;;;;;13.98;8.38;;;;;;;17.12;36.11;99537.24;1798597;76;21125;-78
2021/04/06 08:36:17;;;;;;;10.05;7.37;;;;;;;17.13;36.06;99521.83;1778708;76;21156;-79
2021/04/06 08:38:48;;;;;;;14.33;7.62;;;;;;;17.27;36.49;99522.52;1786704;78;21919;-79
2021/04/06 08:41:36;;;;;;;12.80;7.15;;;;;;;17.42;35.76;99530.55;1791525;78;21150;-76
2021/04/06 08:44:10;;;;;;;17.52;8.05;;;;;;;17.41;35.66;99505.90;1821006;76;21761;-81
2021/04/06 08:46:46;;;;;;;13.78;7.97;;;;;;;17.50;35.76;99507.25;1734271;78;21615;-78
2021/04/06 08:49:22;;;;;;;14.20;7.95;;;;;;;17.65;35.92;99509.56;1822726;76;22066;-79
2021/04/06 08:52:02;;;;;;;12.23;7.28;;;;;;;17.92;35.83;99508.72;1821603;76;21619;-79
2021/04/06 08:54:33;;;;;;;22.15;6.80;;;;;;;18.13;34.76;99494.38;1822217;76;21150;-78
2021/04/06 08:57:08;;;;;;;22.07;6.60;;;;;;;18.28;34.98;99510.20;1784771;78;22501;-78
2021/04/06 08:59:39;;;;;;;21.68;6.90;;;;;;;18.35;34.10;99502.78;1788953;78;21106;-79
2021/04/06 09:02:12;;;;;;;15.90;8.20;;;;;;;18.30;33.68;99501.30;1807078;77;21128;-80
2021/04/06 09:04:50;;;;;;;9.83;6.50;;;;;;;18.27;34.30;99508.56;1784675;78;21130;-79
2021/04/06 09:07:30;;;;;;;46.25;8.90;;;;;;;18.27;33.58;99509.38;1809231;78;21114;-76
2021/04/06 09:10:03;;;;;;;10.43;6.30;;;;;;;18.11;33.87;99491.88;1807946;78;21581;-77
2021/04/06 09:12:30;;;;;;;60.73;7.97;;;;;;;18.07;34.09;99496.10;1812618;78;21125;-76
2021/04/06 09:15:00;;;;;;;15.70;6.67;;;;;;;18.07;33.96;99485.80;1800720;78;21592;-77
2021/04/06 09:17:31;;;;;;;43.38;8.35;;;;;;;18.08;34.33;99503.20;1802914;78;21117;-78
2021/04/06 09:20:01;;;;;;;13.03;6.67;;;;;;;18.14;33.76;99499.56;1797273;78;21101;-78
2021/04/06 09:22:28;;;;;;;7.80;5.35;;;;;;;18.19;33.54;99492.91;1738819;79;21097;-79
2021/04/06 09:24:56;;;;;;;14.85;6.20;;;;;;;18.20;33.29;99517.59;1744489;79;21113;-78
2021/04/06 09:27:24;;;;;;;7.83;5.80;;;;;;;18.04;33.69;99501.19;1801153;77;21171;-78
2021/04/06 09:29:51;;;;;;;;;;;;;;;17.93;34.01;99506.84;1800923;77;21159;-78
2021/04/06 09:32:20;;;;;;;29.02;10.35;;;;;;;17.87;33.04;99502.34;1784871;78;20242;-78
2021/04/06 09:34:50;;;;;;;78.85;26.02;;;;;;;17.72;33.74;99500.02;1818025;77;21565;-79
2021/04/06 09:37:24;;;;;;;30.82;13.98;;;;;;;17.69;33.92;99502.64;1816252;76;21615;-78
2021/04/06 09:39:59;;;;;;;22.67;8.23;;;;;;;17.66;33.94;99500.38;1817497;77;21153;-78
2021/04/06 09:42:27;;;;;;;17.23;6.97;;;;;;;17.67;33.95;99486.33;1817781;77;21116;-77
2021/04/06 09:44:54;;;;;;;14.98;5.80;;;;;;;17.71;33.45;99501.90;1816235;77;21533;-80
2021/04/06 09:47:24;;;;;;;16.37;4.90;;;;;;;17.72;33.39;99485.94;1862854;75;21137;-79
2021/04/06 09:49:53;;;;;;;11.75;4.65;;;;;;;17.77;33.15;99487.17;1853885;75;21133;-77
2021/04/06 09:52:23;;;;;;;7.83;4.30;;;;;;;17.73;32.19;99490.33;1854059;75;21113;-78
2021/04/06 09:55:00;;;;;;;11.75;4.58;;;;;;;17.62;32.15;99488.88;1859096;76;21107;-78
2021/04/06 09:57:37;;;;;;;10.75;4.20;;;;;;;17.53;31.84;99508.66;1856570;75;21093;-78
2021/04/06 10:00:12;;;;;;;7.58;4.95;;;;;;;17.37;31.89;99487.62;1862799;75;21081;-78
2021/04/06 10:02:39;;;;;;;24.72;5.08;;;;;;;17.30;32.12;99470.62;1822442;75;21651;-79
2021/04/06 10:05:19;;;;;;;6.42;5.62;;;;;;;17.34;32.35;99478.06;1860090;75;21202;-79
2021/04/06 10:07:48;;;;;;;21.05;8.33;;;;;;;17.41;32.25;99487.48;1858399;75;21579;-79
2021/04/06 10:10:28;;;;;;;79.32;24.18;;;;;;;17.48;32.50;99477.38;1860320;75;21104;-82
2021/04/06 10:13:00;;;;;;;54.55;19.62;;;;;;;17.55;32.42;99470.55;1855254;75;21097;-78
2021/04/06 10:15:29;;;;;;;15.75;8.35;;;;;;;17.57;32.49;99480.08;1856481;75;21176;-78
2021/04/06 10:18:21;;;;;;;15.88;6.22;;;;;;;17.63;32.84;99479.19;1857110;75;21124;-78
2021/04/06 10:20:50;;;;;;;27.50;10.80;;;;;;;17.71;32.05;99473.96;1828851;75;21151;-80
2021/04/06 10:23:33;;;;;;;17.32;7.58;;;;;;;17.75;32.03;99476.55;1859338;75;21104;-81
2021/04/06 10:26:01;;;;;;;9.75;5.65;;;;;;;17.79;31.89;99467.44;1854865;75;21124;-79
2021/04/06 10:28:31;;;;;;;;;;;;;;;17.79;31.82;99462.02;1859516;75;21521;-80
2021/04/06 10:31:01;;;;;;;47.03;15.90;;;;;;;17.78;32.37;99452.25;1859759;75;20261;-79
2021/04/06 10:33:32;;;;;;;23.57;11.53;;;;;;;17.78;32.46;99446.30;1862450;75;21103;-79
2021/04/06 10:36:15;;;;;;;15.03;6.10;;;;;;;17.81;32.63;99456.69;1855641;75;21102;-78
2021/04/06 10:38:47;;;;;;;63.38;17.10;;;;;;;17.88;32.73;99456.05;1825570;75;21106;-77
2021/04/06 10:41:15;;;;;;;;;;;;;;;17.93;32.09;99452.12;1818294;77;21141;-77
2021/04/06 10:43:48;;;;;;;32.48;13.32;;;;;;;17.91;31.94;99446.65;1788076;79;20488;-77
2021/04/06 10:46:18;;;;;;;25.88;10.20;;;;;;;17.88;31.93;99443.03;1859339;75;21532;-80
2021/04/06 10:48:50;;;;;;;15.85;8.25;;;;;;;17.87;31.88;99452.23;1827567;75;21136;-77
2021/04/06 10:51:22;;;;;;;17.62;8.23;;;;;;;17.83;31.67;99441.55;1849288;75;21089;-77
2021/04/06 10:53:55;;;;;;;12.90;5.90;;;;;;;17.81;32.43;99431.48;1856437;75;21097;-77
2021/04/06 10:56:32;;;;;;;11.35;5.70;;;;;;;17.85;32.24;99439.42;1857851;75;21127;-77
2021/04/06 10:59:06;;;;;;;30.20;10.43;;;;;;;17.80;32.39;99448.77;1859540;76;20967;-79
2021/04/06 11:01:48;;;;;;;65.42;17.42;;;;;;;17.76;32.56;99421.34;1854547;75;20985;-76
2021/04/06 11:04:23;;;;;;;18.45;7.45;;;;;;;17.80;32.68;99421.69;1821717;75;21167;-80
2021/04/06 11:07:00;;;;;;;12.98;4.10;;;;;;;17.82;32.59;99424.47;1859908;75;21207;-78
2021/04/06 11:09:40;;;;;;;35.33;11.53;;;;;;;17.75;32.19;99407.48;1846784;75;21144;-77
2021/04/06 11:12:11;;;;;;;36.05;13.95;;;;;;;17.70;32.81;99397.30;1848161;75;21147;-80
2021/04/06 11:14:40;;;;;;;32.78;14.43;;;;;;;17.81;32.27;99413.34;1841347;76;20986;-78
2021/04/06 11:17:07;;;;;;;18.80;8.30;;;;;;;17.84;32.40;99401.20;1836832;76;21085;-78
2021/04/06 11:19:44;;;;;;;27.40;10.72;;;;;;;17.91;32.16;99401.95;1835651;76;21140;-78
2021/04/06 11:22:14;;;;;;;40.35;12.82;;;;;;;17.97;32.19;99390.17;1838105;76;21157;-77
2021/04/06 11:24:43;;;;;;;21.87;7.47;;;;;;;18.06;31.46;99392.02;1835282;76;21129;-79
2021/04/06 11:27:13;;;;;;;9.08;4.42;;;;;;;18.04;31.82;99387.38;1843678;76;21140;-78
2021/04/06 11:29:41;;;;;;;31.68;10.72;;;;;;;18.09;31.32;99374.77;1832116;76;21112;-78
2021/04/06 11:32:15;;;;;;;25.50;9.48;;;;;;;18.11;31.33;99379.95;1836971;76;21163;-78
2021/04/06 11:34:43;;;;;;;29.55;6.10;;;;;;;18.12;31.82;99368.04;1847345;76;21478;-76
2021/04/06 11:37:10;;;;;;;7.83;3.20;;;;;;;18.15;31.29;99381.95;1846183;76;21141;-76
2021/04/06 11:39:42;;;;;;;9.03;3.02;;;;;;;18.21;30.62;99389.17;1844548;76;21092;-77
2021/04/06 11:42:13;;;;;;;17.20;4.75;;;;;;;18.07;30.68;99379.58;1839499;76;21101;-78
2021/04/06 11:44:41;;;;;;;44.05;18.17;;;;;;;17.88;30.96;99380.73;1841955;76;21091;-78
2021/04/06 11:47:08;;;;;;;8.80;4.75;;;;;;;17.80;31.79;99398.66;1850725;76;21101;-77
2021/04/06 11:49:36;;;;;;;13.93;3.10;;;;;;;17.80;31.29;99383.77;1833552;76;21129;-81
2021/04/06 11:52:04;;;;;;;15.55;4.28;;;;;;;17.79;31.12;99376.70;1844004;76;20999;-78
2021/04/06 11:54:31;;;;;;;11.18;4.60;;;;;;;17.76;31.47;99383.42;1839894;76;21127;-77
2021/04/06 11:57:00;;;;;;;11.83;3.95;;;;;;;17.70;31.87;99387.00;1849372;76;21118;-76